Open Full Screen Window  High Contrast Mode
Wind Gusting 00 knots
12
February 26, 2017 10:20 PM CST
Weather Information
Wind Direction
  230 °
Wind Speed
  12 kt (14 mph)
Wind Gust
  00 kt (0 mph)
Altimeter
29.87 in
Visibility
10 SM
Temperature
-02° C
28° F
Dewpoint
-04° C
25° F
Humidity
86%
1hr Rain Fall
00.00 in.
24hr Rain Fall
00.00 in.
Sky Condition
Clear
VFR

METAR KMDS 270420Z AUTO 23012KT 10SM CLR M02/M04 A2987 RMK AO2

*Background is not an actual portrayal of the airport.